sensor_id;sensor_type;location;lat;lon;timestamp;pressure;altitude;pressure_sealevel;temperature;humidity
72308;BME280;60257;42.638;23.376;2024-01-15T00:02:08;94064.41;;;-3.27;76.87
72308;BME280;60257;42.638;23.376;2024-01-15T00:04:39;94068.41;;;-3.29;76.59
72308;BME280;60257;42.638;23.376;2024-01-15T00:07:07;94056.63;;;-3.28;77.70
72308;BME280;60257;42.638;23.376;2024-01-15T00:09:32;94059.06;;;-3.37;77.76
72308;BME280;60257;42.638;23.376;2024-01-15T00:11:59;94060.09;;;-3.33;77.59
72308;BME280;60257;42.638;23.376;2024-01-15T00:14:24;94053.44;;;-3.40;77.17
72308;BME280;60257;42.638;23.376;2024-01-15T00:16:50;94055.84;;;-3.39;77.02
72308;BME280;60257;42.638;23.376;2024-01-15T00:19:17;94051.84;;;-3.36;77.19
72308;BME280;60257;42.638;23.376;2024-01-15T00:21:44;94059.59;;;-3.40;77.37
72308;BME280;60257;42.638;23.376;2024-01-15T00:24:09;94060.19;;;-3.43;77.19
72308;BME280;60257;42.638;23.376;2024-01-15T00:26:34;94052.44;;;-3.50;77.34
72308;BME280;60257;42.638;23.376;2024-01-15T00:29:00;94056.50;;;-3.57;77.98
72308;BME280;60257;42.638;23.376;2024-01-15T00:31:25;94043.16;;;-3.72;77.79
72308;BME280;60257;42.638;23.376;2024-01-15T00:33:51;94057.28;;;-3.57;77.51
72308;BME280;60257;42.638;23.376;2024-01-15T00:36:17;94063.19;;;-3.60;77.64
72308;BME280;60257;42.638;23.376;2024-01-15T00:38:44;94054.66;;;-3.72;78.13
72308;BME280;60257;42.638;23.376;2024-01-15T00:41:09;94064.84;;;-3.74;77.72
72308;BME280;60257;42.638;23.376;2024-01-15T00:43:34;94060.59;;;-3.80;78.19
72308;BME280;60257;42.638;23.376;2024-01-15T00:46:02;94064.84;;;-3.79;78.45
72308;BME280;60257;42.638;23.376;2024-01-15T00:48:28;94060.28;;;-3.78;78.30
72308;BME280;60257;42.638;23.376;2024-01-15T00:50:53;94058.97;;;-3.86;78.22
72308;BME280;60257;42.638;23.376;2024-01-15T00:53:19;94042.94;;;-4.01;79.45
72308;BME280;60257;42.638;23.376;2024-01-15T00:55:47;94055.50;;;-3.92;78.99
72308;BME280;60257;42.638;23.376;2024-01-15T00:58:13;94049.91;;;-3.95;79.61
72308;BME280;60257;42.638;23.376;2024-01-15T01:00:38;94057.38;;;-3.92;79.56
72308;BME280;60257;42.638;23.376;2024-01-15T01:03:04;94055.28;;;-3.95;79.64
72308;BME280;60257;42.638;23.376;2024-01-15T01:05:29;94053.94;;;-3.98;78.80
72308;BME280;60257;42.638;23.376;2024-01-15T01:07:54;94053.16;;;-4.03;79.53
72308;BME280;60257;42.638;23.376;2024-01-15T01:10:20;94043.25;;;-4.13;79.99
72308;BME280;60257;42.638;23.376;2024-01-15T01:12:45;94053.16;;;-4.13;80.21
72308;BME280;60257;42.638;23.376;2024-01-15T01:15:11;94050.19;;;-4.07;80.22
72308;BME280;60257;42.638;23.376;2024-01-15T01:17:36;94047.25;;;-4.15;80.13
72308;BME280;60257;42.638;23.376;2024-01-15T01:20:02;94040.84;;;-4.14;80.26
72308;BME280;60257;42.638;23.376;2024-01-15T01:22:29;94047.53;;;-4.12;80.39
72308;BME280;60257;42.638;23.376;2024-01-15T01:24:55;94040.31;;;-4.16;80.19
72308;BME280;60257;42.638;23.376;2024-01-15T01:27:20;94044.59;;;-4.20;80.76
72308;BME280;60257;42.638;23.376;2024-01-15T01:29:45;94040.03;;;-4.15;80.54
72308;BME280;60257;42.638;23.376;2024-01-15T01:32:11;94040.88;;;-4.19;80.58
72308;BME280;60257;42.638;23.376;2024-01-15T01:34:40;94025.06;;;-4.21;80.61
72308;BME280;60257;42.638;23.376;2024-01-15T01:37:10;94024.50;;;-4.18;80.26
72308;BME280;60257;42.638;23.376;2024-01-15T01:39:37;94035.50;;;-4.19;80.89
72308;BME280;60257;42.638;23.376;2024-01-15T01:42:03;94032.28;;;-4.16;80.64
72308;BME280;60257;42.638;23.376;2024-01-15T01:44:28;94032.28;;;-4.16;81.37
72308;BME280;60257;42.638;23.376;2024-01-15T01:46:54;94033.34;;;-4.12;81.15
72308;BME280;60257;42.638;23.376;2024-01-15T01:49:19;94037.91;;;-4.13;81.24
72308;BME280;60257;42.638;23.376;2024-01-15T01:51:46;94032.53;;;-4.13;81.25
72308;BME280;60257;42.638;23.376;2024-01-15T01:54:12;94030.91;;;-4.09;81.24
72308;BME280;60257;42.638;23.376;2024-01-15T01:56:39;94027.72;;;-4.11;81.28
72308;BME280;60257;42.638;23.376;2024-01-15T01:59:06;94026.38;;;-4.13;81.02
72308;BME280;60257;42.638;23.376;2024-01-15T02:01:33;94021.06;;;-4.18;81.50
72308;BME280;60257;42.638;23.376;2024-01-15T02:03:58;94014.88;;;-4.24;81.59
72308;BME280;60257;42.638;23.376;2024-01-15T02:06:24;94016.25;;;-4.27;81.47
72308;BME280;60257;42.638;23.376;2024-01-15T02:08:50;94016.50;;;-4.28;81.70
72308;BME280;60257;42.638;23.376;2024-01-15T02:11:15;94014.63;;;-4.28;81.82
72308;BME280;60257;42.638;23.376;2024-01-15T02:13:41;94010.38;;;-4.34;82.21
72308;BME280;60257;42.638;23.376;2024-01-15T02:16:06;94001.00;;;-4.46;81.15
72308;BME280;60257;42.638;23.376;2024-01-15T02:18:45;94005.28;;;-4.40;82.00
72308;BME280;60257;42.638;23.376;2024-01-15T02:21:11;93985.75;;;-4.46;82.13
72308;BME280;60257;42.638;23.376;2024-01-15T02:23:37;93991.13;;;-4.46;82.48
72308;BME280;60257;42.638;23.376;2024-01-15T02:26:04;93986.03;;;-4.47;82.68
72308;BME280;60257;42.638;23.376;2024-01-15T02:28:30;93976.69;;;-4.50;82.92
72308;BME280;60257;42.638;23.376;2024-01-15T02:30:56;93977.47;;;-4.54;82.88
72308;BME280;60257;42.638;23.376;2024-01-15T02:33:22;93952.31;;;-4.53;82.91
72308;BME280;60257;42.638;23.376;2024-01-15T02:35:47;93939.75;;;-4.53;82.98
72308;BME280;60257;42.638;23.376;2024-01-15T02:38:15;93959.00;;;-4.46;82.69
72308;BME280;60257;42.638;23.376;2024-01-15T02:40:41;93957.91;;;-4.40;83.14
72308;BME280;60257;42.638;23.376;2024-01-15T02:43:06;93944.25;;;-4.38;82.09
72308;BME280;60257;42.638;23.376;2024-01-15T02:45:32;93951.75;;;-4.35;82.61
72308;BME280;60257;42.638;23.376;2024-01-15T02:47:57;93945.84;;;-4.27;81.70
72308;BME280;60257;42.638;23.376;2024-01-15T02:50:23;93945.28;;;-4.24;81.91
72308;BME280;60257;42.638;23.376;2024-01-15T02:52:52;93936.16;;;-4.18;81.48
72308;BME280;60257;42.638;23.376;2024-01-15T02:55:17;93945.22;;;-4.09;81.07
72308;BME280;60257;42.638;23.376;2024-01-15T02:57:43;93943.09;;;-4.07;81.33
72308;BME280;60257;42.638;23.376;2024-01-15T03:00:09;93952.97;;;-4.02;80.93
72308;BME280;60257;42.638;23.376;2024-01-15T03:02:38;93941.41;;;-3.93;80.04
72308;BME280;60257;42.638;23.376;2024-01-15T03:05:11;93928.56;;;-3.91;79.89
72308;BME280;60257;42.638;23.376;2024-01-15T03:07:37;93938.41;;;-3.76;80.05
72308;BME280;60257;42.638;23.376;2024-01-15T03:10:02;93948.75;;;-3.59;78.30
72308;BME280;60257;42.638;23.376;2024-01-15T03:12:28;93939.56;;;-3.43;77.75
72308;BME280;60257;42.638;23.376;2024-01-15T03:14:53;93928.84;;;-3.43;77.55
72308;BME280;60257;42.638;23.376;2024-01-15T03:17:19;93939.28;;;-3.41;77.86
72308;BME280;60257;42.638;23.376;2024-01-15T03:19:44;93922.41;;;-3.42;78.33
72308;BME280;60257;42.638;23.376;2024-01-15T03:22:10;93941.16;;;-3.42;78.69
72308;BME280;60257;42.638;23.376;2024-01-15T03:24:35;93938.44;;;-3.37;77.71
72308;BME280;60257;42.638;23.376;2024-01-15T03:27:01;93924.19;;;-3.32;78.04
72308;BME280;60257;42.638;23.376;2024-01-15T03:29:27;93924.75;;;-3.35;78.93
72308;BME280;60257;42.638;23.376;2024-01-15T03:31:53;93922.31;;;-3.32;78.71
72308;BME280;60257;42.638;23.376;2024-01-15T03:34:18;93919.13;;;-3.39;78.71
72308;BME280;60257;42.638;23.376;2024-01-15T03:36:44;93925.00;;;-3.32;78.40
72308;BME280;60257;42.638;23.376;2024-01-15T03:39:09;93904.38;;;-3.36;78.44
72308;BME280;60257;42.638;23.376;2024-01-15T03:41:35;93899.03;;;-3.36;78.71
72308;BME280;60257;42.638;23.376;2024-01-15T03:44:00;93942.44;;;-3.34;77.67
72308;BME280;60257;42.638;23.376;2024-01-15T03:46:26;93885.94;;;-3.43;77.80
72308;BME280;60257;42.638;23.376;2024-01-15T03:48:52;93899.38;;;-3.48;78.49
72308;BME280;60257;42.638;23.376;2024-01-15T03:51:17;93937.69;;;-3.47;78.03
72308;BME280;60257;42.638;23.376;2024-01-15T03:53:43;93893.50;;;-3.50;78.42
72308;BME280;60257;42.638;23.376;2024-01-15T03:56:08;93920.84;;;-3.53;78.53
72308;BME280;60257;42.638;23.376;2024-01-15T03:58:34;93928.09;;;-3.54;78.38
72308;BME280;60257;42.638;23.376;2024-01-15T04:00:59;93918.22;;;-3.63;78.44
72308;BME280;60257;42.638;23.376;2024-01-15T04:03:24;93920.41;;;-3.70;78.67
72308;BME280;60257;42.638;23.376;2024-01-15T04:05:50;93916.41;;;-3.73;79.14
72308;BME280;60257;42.638;23.376;2024-01-15T04:08:15;93891.06;;;-3.91;78.64
72308;BME280;60257;42.638;23.376;2024-01-15T04:10:41;93902.81;;;-3.81;79.33
72308;BME280;60257;42.638;23.376;2024-01-15T04:13:06;93885.44;;;-3.89;79.74
72308;BME280;60257;42.638;23.376;2024-01-15T04:15:32;93890.00;;;-3.95;79.40
72308;BME280;60257;42.638;23.376;2024-01-15T04:17:57;93900.44;;;-3.93;79.39
72308;BME280;60257;42.638;23.376;2024-01-15T04:20:22;93899.13;;;-4.01;79.64
72308;BME280;60257;42.638;23.376;2024-01-15T04:22:48;93896.22;;;-4.04;79.99
72308;BME280;60257;42.638;23.376;2024-01-15T04:25:13;93889.03;;;-4.14;80.71
72308;BME280;60257;42.638;23.376;2024-01-15T04:27:39;93904.28;;;-4.14;80.79
72308;BME280;60257;42.638;23.376;2024-01-15T04:30:04;93898.72;;;-4.23;80.88
72308;BME280;60257;42.638;23.376;2024-01-15T04:32:30;93904.91;;;-4.28;81.54
72308;BME280;60257;42.638;23.376;2024-01-15T04:34:56;93907.81;;;-4.24;81.89
72308;BME280;60257;42.638;23.376;2024-01-15T04:37:21;93909.41;;;-4.23;82.15
72308;BME280;60257;42.638;23.376;2024-01-15T04:39:46;93901.91;;;-4.21;82.06
72308;BME280;60257;42.638;23.376;2024-01-15T04:42:12;93909.66;;;-4.14;82.06
72308;BME280;60257;42.638;23.376;2024-01-15T04:44:37;93901.34;;;-4.18;82.05
72308;BME280;60257;42.638;23.376;2024-01-15T04:47:03;93903.75;;;-4.16;82.56
72308;BME280;60257;42.638;23.376;2024-01-15T04:49:28;93888.50;;;-4.16;81.89
72308;BME280;60257;42.638;23.376;2024-01-15T04:51:54;93882.34;;;-4.16;81.65
72308;BME280;60257;42.638;23.376;2024-01-15T04:54:20;93899.47;;;-4.17;82.04
72308;BME280;60257;42.638;23.376;2024-01-15T04:56:46;93884.50;;;-4.18;81.93
72308;BME280;60257;42.638;23.376;2024-01-15T04:59:11;93890.66;;;-4.18;81.91
72308;BME280;60257;42.638;23.376;2024-01-15T05:01:37;93890.66;;;-4.18;82.40
72308;BME280;60257;42.638;23.376;2024-01-15T05:04:02;93882.59;;;-4.18;83.13
72308;BME280;60257;42.638;23.376;2024-01-15T05:06:28;93881.31;;;-4.20;82.91
72308;BME280;60257;42.638;23.376;2024-01-15T05:08:53;93861.75;;;-4.21;83.07
72308;BME280;60257;42.638;23.376;2024-01-15T05:11:18;93879.41;;;-4.15;83.20
72308;BME280;60257;42.638;23.376;2024-01-15T05:13:44;93866.50;;;-4.03;82.44
72308;BME280;60257;42.638;23.376;2024-01-15T05:16:09;93861.41;;;-4.04;82.62
72308;BME280;60257;42.638;23.376;2024-01-15T05:18:35;93845.63;;;-4.06;82.25
72308;BME280;60257;42.638;23.376;2024-01-15T05:21:02;93864.84;;;-3.99;82.33
72308;BME280;60257;42.638;23.376;2024-01-15T05:23:28;93852.50;;;-3.95;82.44
72308;BME280;60257;42.638;23.376;2024-01-15T05:25:53;93856.88;;;-4.04;82.39
72308;BME280;60257;42.638;23.376;2024-01-15T05:28:19;93866.19;;;-3.96;82.12
72308;BME280;60257;42.638;23.376;2024-01-15T05:30:44;93857.84;;;-3.95;82.08
72308;BME280;60257;42.638;23.376;2024-01-15T05:33:09;93849.31;;;-3.97;81.84
72308;BME280;60257;42.638;23.376;2024-01-15T05:35:35;93859.72;;;-3.90;81.71
72308;BME280;60257;42.638;23.376;2024-01-15T05:38:01;93836.66;;;-3.86;81.56
72308;BME280;60257;42.638;23.376;2024-01-15T05:40:28;93852.88;;;-3.67;80.75
72308;BME280;60257;42.638;23.376;2024-01-15T05:42:53;93858.72;;;-3.60;80.45
72308;BME280;60257;42.638;23.376;2024-01-15T05:45:18;93856.63;;;-3.68;80.67
72308;BME280;60257;42.638;23.376;2024-01-15T05:47:44;93860.13;;;-3.68;80.75
72308;BME280;60257;42.638;23.376;2024-01-15T05:50:10;93841.25;;;-3.92;80.47
72308;BME280;60257;42.638;23.376;2024-01-15T05:52:35;93844.41;;;-3.84;80.06
72308;BME280;60257;42.638;23.376;2024-01-15T05:55:01;93831.59;;;-3.93;80.14
72308;BME280;60257;42.638;23.376;2024-01-15T05:57:27;93831.06;;;-3.90;80.52
72308;BME280;60257;42.638;23.376;2024-01-15T05:59:53;93841.56;;;-3.98;81.14
72308;BME280;60257;42.638;23.376;2024-01-15T06:02:18;93842.91;;;-3.96;81.56
72308;BME280;60257;42.638;23.376;2024-01-15T06:04:44;93857.09;;;-3.95;81.46
72308;BME280;60257;42.638;23.376;2024-01-15T06:07:09;93858.38;;;-3.88;81.57
72308;BME280;60257;42.638;23.376;2024-01-15T06:09:34;93859.97;;;-3.87;81.23
72308;BME280;60257;42.638;23.376;2024-01-15T06:12:00;93850.56;;;-3.84;81.69
72308;BME280;60257;42.638;23.376;2024-01-15T06:14:25;93851.63;;;-3.80;81.69
72308;BME280;60257;42.638;23.376;2024-01-15T06:16:52;93837.94;;;-3.78;81.75
72308;BME280;60257;42.638;23.376;2024-01-15T06:19:17;93850.41;;;-3.98;81.76
72308;BME280;60257;42.638;23.376;2024-01-15T06:21:43;93844.47;;;-3.95;82.22
72308;BME280;60257;42.638;23.376;2024-01-15T06:24:08;93841.78;;;-3.90;82.29
72308;BME280;60257;42.638;23.376;2024-01-15T06:26:35;93833.47;;;-3.88;81.69
72308;BME280;60257;42.638;23.376;2024-01-15T06:29:00;93838.44;;;-3.71;82.03
72308;BME280;60257;42.638;23.376;2024-01-15T06:31:26;93835.69;;;-3.61;81.74
72308;BME280;60257;42.638;23.376;2024-01-15T06:33:51;93839.66;;;-3.54;82.02
72308;BME280;60257;42.638;23.376;2024-01-15T06:36:17;93848.44;;;-3.48;82.28
72308;BME280;60257;42.638;23.376;2024-01-15T06:38:45;93839.31;;;-3.42;81.61
72308;BME280;60257;42.638;23.376;2024-01-15T06:41:10;93833.56;;;-3.30;81.44
72308;BME280;60257;42.638;23.376;2024-01-15T06:43:36;93856.81;;;-3.21;80.67
72308;BME280;60257;42.638;23.376;2024-01-15T06:46:01;93831.53;;;-3.15;80.92
72308;BME280;60257;42.638;23.376;2024-01-15T06:48:26;93830.94;;;-3.06;80.67
72308;BME280;60257;42.638;23.376;2024-01-15T06:50:52;93836.75;;;-2.99;80.25
72308;BME280;60257;42.638;23.376;2024-01-15T06:53:18;93851.41;;;-2.87;79.47
72308;BME280;60257;42.638;23.376;2024-01-15T06:55:43;93855.38;;;-2.79;79.54
72308;BME280;60257;42.638;23.376;2024-01-15T06:58:08;93839.19;;;-2.74;79.28
72308;BME280;60257;42.638;23.376;2024-01-15T07:00:34;93852.22;;;-2.62;78.52
72308;BME280;60257;42.638;23.376;2024-01-15T07:02:59;93831.50;;;-2.57;77.96
72308;BME280;60257;42.638;23.376;2024-01-15T07:05:25;93843.16;;;-2.43;77.64
72308;BME280;60257;42.638;23.376;2024-01-15T07:07:50;93857.09;;;-2.41;77.50
72308;BME280;60257;42.638;23.376;2024-01-15T07:10:16;93847.31;;;-2.32;77.96
72308;BME280;60257;42.638;23.376;2024-01-15T07:12:42;93855.03;;;-2.25;78.03
72308;BME280;60257;42.638;23.376;2024-01-15T07:15:08;93856.16;;;-2.31;76.64
72308;BME280;60257;42.638;23.376;2024-01-15T07:17:34;93872.06;;;-2.35;76.67
72308;BME280;60257;42.638;23.376;2024-01-15T07:20:00;93854.41;;;-2.41;77.39
72308;BME280;60257;42.638;23.376;2024-01-15T07:22:26;93855.44;;;-2.37;76.92
72308;BME280;60257;42.638;23.376;2024-01-15T07:24:51;93855.34;;;-2.32;77.03
72308;BME280;60257;42.638;23.376;2024-01-15T07:27:16;93862.84;;;-2.28;77.76
72308;BME280;60257;42.638;23.376;2024-01-15T07:29:45;93836.28;;;-2.30;77.80
72308;BME280;60257;42.638;23.376;2024-01-15T07:32:10;93838.03;;;-2.20;77.70
72308;BME280;60257;42.638;23.376;2024-01-15T07:34:36;93846.84;;;-2.15;77.30
72308;BME280;60257;42.638;23.376;2024-01-15T07:37:02;93840.03;;;-2.07;77.74
72308;BME280;60257;42.638;23.376;2024-01-15T07:39:27;93852.09;;;-2.05;77.02
72308;BME280;60257;42.638;23.376;2024-01-15T07:41:54;93854.94;;;-1.96;77.61
72308;BME280;60257;42.638;23.376;2024-01-15T07:44:19;93837.88;;;-1.86;76.89
72308;BME280;60257;42.638;23.376;2024-01-15T07:46:48;93861.47;;;-1.83;76.74
72308;BME280;60257;42.638;23.376;2024-01-15T07:49:14;93840.63;;;-1.73;77.03
72308;BME280;60257;42.638;23.376;2024-01-15T07:51:39;93872.81;;;-1.68;76.61
72308;BME280;60257;42.638;23.376;2024-01-15T07:54:09;93867.88;;;-1.61;76.50
72308;BME280;60257;42.638;23.376;2024-01-15T07:56:34;93810.19;;;-1.68;75.36
72308;BME280;60257;42.638;23.376;2024-01-15T07:59:00;93866.69;;;-1.55;75.78
72308;BME280;60257;42.638;23.376;2024-01-15T08:01:26;93822.31;;;-1.52;75.34
72308;BME280;60257;42.638;23.376;2024-01-15T08:03:51;93848.97;;;-1.37;72.57
72308;BME280;60257;42.638;23.376;2024-01-15T08:06:18;93835.22;;;-1.35;72.48
72308;BME280;60257;42.638;23.376;2024-01-15T08:08:43;93780.56;;;-1.31;71.98
72308;BME280;60257;42.638;23.376;2024-01-15T08:11:09;93829.22;;;-1.13;72.22
72308;BME280;60257;42.638;23.376;2024-01-15T08:13:34;93825.75;;;-1.00;72.06
72308;BME280;60257;42.638;23.376;2024-01-15T08:15:59;93836.75;;;-0.97;70.89
72308;BME280;60257;42.638;23.376;2024-01-15T08:18:25;93841.34;;;-0.97;71.21
72308;BME280;60257;42.638;23.376;2024-01-15T08:20:50;93843.34;;;-0.89;70.84
72308;BME280;60257;42.638;23.376;2024-01-15T08:23:17;93834.09;;;-0.83;71.57
72308;BME280;60257;42.638;23.376;2024-01-15T08:25:42;93846.06;;;-0.75;70.85
72308;BME280;60257;42.638;23.376;2024-01-15T08:28:08;93843.66;;;-0.77;70.84
72308;BME280;60257;42.638;23.376;2024-01-15T08:30:33;93839.69;;;-0.80;69.73
72308;BME280;60257;42.638;23.376;2024-01-15T08:32:59;93817.75;;;-0.73;70.05
72308;BME280;60257;42.638;23.376;2024-01-15T08:35:25;93841.28;;;-0.79;70.00
72308;BME280;60257;42.638;23.376;2024-01-15T08:37:50;93799.09;;;-0.69;70.02
72308;BME280;60257;42.638;23.376;2024-01-15T08:40:16;93831.13;;;-0.68;69.16
72308;BME280;60257;42.638;23.376;2024-01-15T08:42:42;93787.97;;;-0.63;69.99
72308;BME280;60257;42.638;23.376;2024-01-15T08:45:08;93836.31;;;-0.58;69.96
72308;BME280;60257;42.638;23.376;2024-01-15T08:47:34;93791.75;;;-0.50;70.88
72308;BME280;60257;42.638;23.376;2024-01-15T08:50:00;93823.06;;;-0.41;69.68
72308;BME280;60257;42.638;23.376;2024-01-15T08:52:25;93785.94;;;-0.30;69.97
72308;BME280;60257;42.638;23.376;2024-01-15T08:54:51;93805.91;;;-0.31;69.58
72308;BME280;60257;42.638;23.376;2024-01-15T08:57:16;93790.16;;;-0.24;69.62
72308;BME280;60257;42.638;23.376;2024-01-15T08:59:42;93807.13;;;-0.23;69.54
72308;BME280;60257;42.638;23.376;2024-01-15T09:02:07;93797.63;;;-0.21;69.60
72308;BME280;60257;42.638;23.376;2024-01-15T09:04:33;93798.59;;;-0.03;68.37
72308;BME280;60257;42.638;23.376;2024-01-15T09:06:59;93793.88;;;0.03;68.39
72308;BME280;60257;42.638;23.376;2024-01-15T09:09:24;93774.50;;;0.14;67.76
72308;BME280;60257;42.638;23.376;2024-01-15T09:11:51;93761.59;;;0.25;67.98
72308;BME280;60257;42.638;23.376;2024-01-15T09:14:16;93765.66;;;0.36;68.33
72308;BME280;60257;42.638;23.376;2024-01-15T09:16:42;93739.47;;;0.36;68.76
72308;BME280;60257;42.638;23.376;2024-01-15T09:19:08;93724.47;;;0.44;67.95
72308;BME280;60257;42.638;23.376;2024-01-15T09:21:33;93724.84;;;0.51;67.14
72308;BME280;60257;42.638;23.376;2024-01-15T09:23:58;93706.91;;;0.55;66.98
72308;BME280;60257;42.638;23.376;2024-01-15T09:26:24;93704.84;;;0.52;66.55
72308;BME280;60257;42.638;23.376;2024-01-15T09:28:49;93714.09;;;0.60;67.12
72308;BME280;60257;42.638;23.376;2024-01-15T09:31:15;93719.59;;;0.55;69.09
72308;BME280;60257;42.638;23.376;2024-01-15T09:33:43;93724.97;;;0.46;69.24
72308;BME280;60257;42.638;23.376;2024-01-15T09:36:09;93701.59;;;0.42;69.18
72308;BME280;60257;42.638;23.376;2024-01-15T09:38:34;93734.19;;;0.31;69.62
72308;BME280;60257;42.638;23.376;2024-01-15T09:41:00;93698.75;;;0.24;69.65
72308;BME280;60257;42.638;23.376;2024-01-15T09:43:26;93712.97;;;0.16;70.08
72308;BME280;60257;42.638;23.376;2024-01-15T09:45:53;93718.38;;;0.16;70.24
72308;BME280;60257;42.638;23.376;2024-01-15T09:48:18;93701.72;;;0.14;70.50
72308;BME280;60257;42.638;23.376;2024-01-15T09:50:44;93679.09;;;0.02;70.77
72308;BME280;60257;42.638;23.376;2024-01-15T09:53:11;93676.75;;;0.09;70.59
72308;BME280;60257;42.638;23.376;2024-01-15T09:55:37;93655.75;;;-0.03;70.33
72308;BME280;60257;42.638;23.376;2024-01-15T09:58:03;93664.50;;;0.03;70.67
72308;BME280;60257;42.638;23.376;2024-01-15T10:00:29;93654.03;;;0.01;70.41
72308;BME280;60257;42.638;23.376;2024-01-15T10:02:58;93663.34;;;-0.05;70.93
72308;BME280;60257;42.638;23.376;2024-01-15T10:05:26;93658.75;;;-0.05;70.31
72308;BME280;60257;42.638;23.376;2024-01-15T10:07:53;93646.63;;;-0.16;70.22
72308;BME280;60257;42.638;23.376;2024-01-15T10:10:18;93668.00;;;-0.19;70.76
72308;BME280;60257;42.638;23.376;2024-01-15T10:12:44;93631.50;;;-0.25;70.78
72308;BME280;60257;42.638;23.376;2024-01-15T10:15:10;93674.69;;;-0.30;70.86
72308;BME280;60257;42.638;23.376;2024-01-15T10:17:38;93632.50;;;-0.35;70.30
72308;BME280;60257;42.638;23.376;2024-01-15T10:20:13;93651.06;;;-0.33;70.90
72308;BME280;60257;42.638;23.376;2024-01-15T10:22:42;93633.97;;;-0.29;70.18
72308;BME280;60257;42.638;23.376;2024-01-15T10:25:12;93621.81;;;-0.26;70.56
72308;BME280;60257;42.638;23.376;2024-01-15T10:27:39;93628.97;;;-0.22;69.85
72308;BME280;60257;42.638;23.376;2024-01-15T10:30:05;93611.72;;;-0.21;69.96
72308;BME280;60257;42.638;23.376;2024-01-15T10:32:31;93604.19;;;-0.10;70.00
72308;BME280;60257;42.638;23.376;2024-01-15T10:34:57;93617.03;;;-0.07;69.13
72308;BME280;60257;42.638;23.376;2024-01-15T10:37:24;93588.56;;;0.00;68.54
72308;BME280;60257;42.638;23.376;2024-01-15T10:39:49;93601.19;;;0.14;67.32
72308;BME280;60257;42.638;23.376;2024-01-15T10:42:15;93609.13;;;0.19;67.06
72308;BME280;60257;42.638;23.376;2024-01-15T10:44:43;93597.59;;;0.27;66.83
72308;BME280;60257;42.638;23.376;2024-01-15T10:47:09;93598.34;;;0.19;66.85
72308;BME280;60257;42.638;23.376;2024-01-15T10:49:34;93595.56;;;0.32;67.13
72308;BME280;60257;42.638;23.376;2024-01-15T10:52:01;93591.31;;;0.40;66.44
72308;BME280;60257;42.638;23.376;2024-01-15T10:54:27;93619.38;;;0.30;66.28
72308;BME280;60257;42.638;23.376;2024-01-15T10:56:52;93583.56;;;0.38;66.26
72308;BME280;60257;42.638;23.376;2024-01-15T10:59:20;93600.34;;;0.35;66.15
72308;BME280;60257;42.638;23.376;2024-01-15T11:01:46;93567.19;;;0.35;65.99
72308;BME280;60257;42.638;23.376;2024-01-15T11:04:13;93605.00;;;0.44;66.31
72308;BME280;60257;42.638;23.376;2024-01-15T11:06:46;93564.88;;;0.51;65.40
72308;BME280;60257;42.638;23.376;2024-01-15T11:09:12;93582.22;;;0.58;66.15
72308;BME280;60257;42.638;23.376;2024-01-15T11:11:43;93570.81;;;0.70;66.00
72308;BME280;60257;42.638;23.376;2024-01-15T11:14:09;93562.31;;;0.85;65.14
72308;BME280;60257;42.638;23.376;2024-01-15T11:16:54;93548.53;;;0.95;64.25
72308;BME280;60257;42.638;23.376;2024-01-15T11:19:22;93564.91;;;0.99;64.61
72308;BME280;60257;42.638;23.376;2024-01-15T11:21:47;93555.88;;;1.12;64.23
72308;BME280;60257;42.638;23.376;2024-01-15T11:24:34;93551.91;;;1.18;63.52
72308;BME280;60257;42.638;23.376;2024-01-15T11:27:00;93543.03;;;1.35;63.04
72308;BME280;60257;42.638;23.376;2024-01-15T11:31:59;93547.16;;;1.58;63.58
72308;BME280;60257;42.638;23.376;2024-01-15T11:37:16;93538.75;;;1.77;62.66
72308;BME280;60257;42.638;23.376;2024-01-15T11:39:42;93543.50;;;1.88;62.26
72308;BME280;60257;42.638;23.376;2024-01-15T11:42:10;93541.41;;;2.03;61.99
72308;BME280;60257;42.638;23.376;2024-01-15T11:44:37;93525.34;;;2.06;62.13
72308;BME280;60257;42.638;23.376;2024-01-15T11:47:06;93513.41;;;2.16;61.48
72308;BME280;60257;42.638;23.376;2024-01-15T11:52:22;93500.50;;;2.21;61.84
72308;BME280;60257;42.638;23.376;2024-01-15T11:55:19;93544.09;;;2.20;61.91
72308;BME280;60257;42.638;23.376;2024-01-15T11:57:52;93511.44;;;2.25;62.16
72308;BME280;60257;42.638;23.376;2024-01-15T12:00:20;93511.59;;;2.28;62.94
72308;BME280;60257;42.638;23.376;2024-01-15T12:02:47;93521.25;;;2.47;62.28
72308;BME280;60257;42.638;23.376;2024-01-15T12:05:14;93510.41;;;2.55;62.98
72308;BME280;60257;42.638;23.376;2024-01-15T12:07:43;93505.88;;;2.68;61.21
72308;BME280;60257;42.638;23.376;2024-01-15T12:10:19;93519.72;;;2.66;62.31
72308;BME280;60257;42.638;23.376;2024-01-15T12:12:58;93483.72;;;2.75;61.63
72308;BME280;60257;42.638;23.376;2024-01-15T12:15:25;93478.50;;;2.69;61.84
72308;BME280;60257;42.638;23.376;2024-01-15T12:17:51;93488.31;;;2.74;62.13
72308;BME280;60257;42.638;23.376;2024-01-15T12:20:17;93479.97;;;2.88;61.85
72308;BME280;60257;42.638;23.376;2024-01-15T12:22:43;93464.50;;;2.88;61.16
72308;BME280;60257;42.638;23.376;2024-01-15T12:25:09;93480.16;;;2.83;61.53
72308;BME280;60257;42.638;23.376;2024-01-15T12:27:35;93474.00;;;2.74;61.54
72308;BME280;60257;42.638;23.376;2024-01-15T12:30:00;93467.28;;;2.80;62.14
72308;BME280;60257;42.638;23.376;2024-01-15T12:32:26;93494.50;;;2.83;62.34
72308;BME280;60257;42.638;23.376;2024-01-15T12:34:51;93488.75;;;2.85;62.65
72308;BME280;60257;42.638;23.376;2024-01-15T12:37:20;93483.16;;;2.90;63.52
72308;BME280;60257;42.638;23.376;2024-01-15T12:39:46;93485.22;;;2.93;63.51
72308;BME280;60257;42.638;23.376;2024-01-15T12:42:11;93446.56;;;3.04;62.31
72308;BME280;60257;42.638;23.376;2024-01-15T12:44:39;93481.66;;;3.01;62.42
72308;BME280;60257;42.638;23.376;2024-01-15T12:47:05;93483.56;;;3.00;63.26
72308;BME280;60257;42.638;23.376;2024-01-15T12:49:30;93434.94;;;3.04;63.09
72308;BME280;60257;42.638;23.376;2024-01-15T12:51:59;93467.13;;;3.05;62.41
72308;BME280;60257;42.638;23.376;2024-01-15T12:54:25;93463.94;;;3.03;62.85
72308;BME280;60257;42.638;23.376;2024-01-15T12:56:51;93425.38;;;3.06;62.55